createdAt,value
2018-06-28T00:00:56.693Z,3.25
2018-06-28T00:03:25.137Z,3.22
2018-06-28T00:05:53.441Z,3.10
2018-06-28T00:08:21.804Z,3.60
2018-06-28T00:10:50.156Z,3.62
2018-06-28T00:13:18.484Z,3.85
2018-06-28T00:15:46.797Z,3.30
2018-06-28T00:18:15.133Z,3.30
2018-06-28T00:20:43.425Z,2.92
2018-06-28T00:23:11.770Z,2.90
2018-06-28T00:25:40.097Z,3.95
2018-06-28T00:28:08.441Z,3.02
2018-06-28T00:30:36.758Z,3.62
2018-06-28T00:33:05.186Z,3.77
2018-06-28T00:35:33.482Z,3.20
2018-06-28T00:38:01.818Z,2.75
2018-06-28T00:40:36.833Z,2.80
2018-06-28T00:43:04.904Z,3.15
2018-06-28T00:45:33.225Z,3.00
2018-06-28T00:48:01.562Z,3.20
2018-06-28T00:50:29.874Z,3.20
2018-06-28T00:52:58.225Z,3.60
2018-06-28T00:55:26.260Z,3.37
2018-06-28T00:57:54.608Z,3.47
2018-06-28T01:00:22.909Z,3.47
2018-06-28T01:02:51.244Z,3.30
2018-06-28T01:05:19.541Z,3.52
2018-06-28T01:07:47.862Z,3.30
2018-06-28T01:10:16.180Z,3.50
2018-06-28T01:12:44.521Z,3.80
2018-06-28T01:15:12.812Z,4.00
2018-06-28T01:17:41.127Z,3.70
2018-06-28T01:20:09.484Z,3.92
2018-06-28T01:22:37.508Z,3.85
2018-06-28T01:25:05.867Z,3.10
2018-06-28T01:27:34.181Z,3.30
2018-06-28T01:30:02.525Z,3.85
2018-06-28T01:32:30.820Z,3.67
2018-06-28T01:34:59.149Z,3.92
2018-06-28T01:37:27.173Z,3.87
2018-06-28T01:39:55.509Z,3.45
2018-06-28T01:43:36.776Z,3.65
2018-06-28T01:46:05.132Z,3.83
2018-06-28T01:48:33.512Z,3.72
2018-06-28T01:51:01.800Z,3.90
2018-06-28T01:53:30.281Z,3.25
2018-06-28T01:55:58.600Z,4.25
2018-06-28T01:58:26.665Z,4.40
2018-06-28T02:00:54.683Z,3.98
2018-06-28T02:03:23.069Z,3.92
2018-06-28T02:05:52.377Z,4.72
2018-06-28T02:08:21.090Z,4.28
2018-06-28T02:10:49.408Z,4.22
2018-06-28T02:13:18.057Z,4.33
2018-06-28T02:15:46.420Z,4.62
2018-06-28T02:18:14.781Z,4.08
2018-06-28T02:20:43.145Z,4.20
2018-06-28T02:23:11.441Z,3.62
2018-06-28T02:25:39.774Z,4.30
2018-06-28T02:28:08.101Z,3.77
2018-06-28T02:30:36.554Z,5.30
2018-06-28T02:33:04.853Z,4.70
2018-06-28T02:35:33.178Z,4.50
2018-06-28T02:38:01.212Z,4.15
2018-06-28T02:40:29.544Z,5.30
2018-06-28T02:42:57.866Z,4.40
2018-06-28T02:45:26.201Z,4.78
2018-06-28T02:47:54.517Z,4.95
2018-06-28T02:50:22.845Z,4.72
2018-06-28T02:52:51.152Z,4.47
2018-06-28T02:55:19.476Z,5.00
2018-06-28T02:57:47.776Z,4.97
2018-06-28T03:00:16.109Z,4.95
2018-06-28T03:02:44.458Z,5.30
2018-06-28T03:05:12.793Z,4.65
2018-06-28T03:07:41.165Z,4.80
2018-06-28T03:10:09.472Z,5.33
2018-06-28T03:12:37.764Z,5.67
2018-06-28T03:15:06.149Z,4.80
2018-06-28T03:17:34.446Z,4.90
2018-06-28T03:20:02.781Z,5.03
2018-06-28T03:22:31.104Z,5.17
2018-06-28T03:24:59.449Z,4.85
2018-06-28T03:27:27.756Z,5.08
2018-06-28T03:29:56.091Z,5.40
2018-06-28T03:32:24.393Z,5.15
2018-06-28T03:34:52.444Z,5.05
2018-06-28T03:37:20.785Z,4.83
2018-06-28T03:39:49.122Z,5.20
2018-06-28T03:42:17.412Z,4.83
2018-06-28T03:44:45.749Z,5.33
2018-06-28T03:47:14.040Z,5.65
2018-06-28T03:49:42.394Z,5.25
2018-06-28T03:52:10.708Z,5.50
2018-06-28T03:54:39.045Z,5.83
2018-06-28T03:57:07.353Z,5.62
2018-06-28T03:59:35.709Z,4.75
2018-06-28T04:02:04.057Z,5.37
2018-06-28T04:04:32.416Z,5.33
2018-06-28T04:07:00.715Z,5.40
2018-06-28T04:09:29.048Z,5.53
2018-06-28T04:11:57.076Z,5.55
2018-06-28T04:14:25.414Z,5.92
2018-06-28T04:16:53.773Z,5.55
2018-06-28T04:19:22.084Z,7.25
2018-06-28T04:21:50.433Z,6.03
2018-06-28T04:24:18.733Z,5.62
2018-06-28T04:26:47.062Z,6.30
2018-06-28T04:29:15.369Z,5.70
2018-06-28T04:31:43.714Z,5.47
2018-06-28T04:34:12.006Z,6.25
2018-06-28T04:36:40.342Z,5.58
2018-06-28T04:39:10.522Z,6.37
2018-06-28T04:41:38.677Z,6.08
2018-06-28T04:44:06.983Z,5.28
2018-06-28T04:46:35.316Z,5.00
2018-06-28T04:49:03.672Z,5.87
2018-06-28T04:51:32.021Z,6.20
2018-06-28T04:54:00.336Z,5.20
2018-06-28T04:56:28.671Z,5.22
2018-06-28T04:58:56.965Z,5.28
2018-06-28T05:01:25.049Z,5.75
2018-06-28T05:03:53.413Z,6.05
2018-06-28T05:06:21.785Z,5.95
2018-06-28T05:08:50.141Z,6.08
2018-06-28T05:11:18.500Z,5.83
2018-06-28T05:13:46.788Z,6.17
2018-06-28T05:16:15.133Z,5.62
2018-06-28T05:18:43.626Z,6.40
2018-06-28T05:21:12.007Z,5.75
2018-06-28T05:23:40.317Z,6.08
2018-06-28T05:26:08.668Z,6.12
2018-06-28T05:28:36.977Z,6.22
2018-06-28T05:31:05.312Z,6.15
2018-06-28T05:33:33.609Z,7.15
2018-06-28T05:36:01.945Z,5.87
2018-06-28T05:38:30.446Z,6.28
2018-06-28T05:40:58.778Z,5.67
2018-06-28T05:43:27.092Z,5.80
2018-06-28T05:45:55.365Z,5.58
2018-06-28T05:48:23.660Z,5.15
2018-06-28T05:50:51.997Z,6.00
2018-06-28T05:53:20.299Z,5.25
2018-06-28T05:55:48.637Z,5.58
2018-06-28T05:58:16.957Z,5.33
2018-06-28T06:00:46.313Z,5.70
2018-06-28T06:03:14.688Z,6.28
2018-06-28T06:05:42.994Z,5.60
2018-06-28T06:08:11.333Z,4.80
2018-06-28T06:10:39.669Z,5.40
2018-06-28T06:13:08.044Z,5.15
2018-06-28T06:15:36.072Z,5.75
2018-06-28T06:18:04.747Z,6.22
2018-06-28T06:20:33.142Z,5.70
2018-06-28T06:23:01.477Z,6.30
2018-06-28T06:25:29.496Z,5.35
2018-06-28T06:27:57.859Z,5.20
2018-06-28T06:30:26.158Z,6.37
2018-06-28T06:32:54.488Z,6.03
2018-06-28T06:35:22.790Z,6.22
2018-06-28T06:37:51.115Z,5.58
2018-06-28T06:40:19.433Z,6.15
2018-06-28T06:42:47.810Z,6.33
2018-06-28T06:45:16.101Z,6.15
2018-06-28T06:47:44.492Z,6.05
2018-06-28T06:50:12.787Z,5.45
2018-06-28T06:52:41.138Z,5.72
2018-06-28T06:55:09.458Z,6.37
2018-06-28T06:57:37.795Z,6.00
2018-06-28T07:00:06.137Z,5.72
2018-06-28T07:02:34.484Z,6.50
2018-06-28T07:05:02.827Z,6.03
2018-06-28T07:07:31.158Z,6.05
2018-06-28T07:09:59.461Z,6.05
2018-06-28T07:12:27.528Z,5.78
2018-06-28T07:14:55.820Z,5.60
2018-06-28T07:17:24.161Z,5.60
2018-06-28T07:19:52.465Z,6.10
2018-06-28T07:22:20.835Z,5.70
2018-06-28T07:24:49.130Z,5.60
2018-06-28T07:27:17.452Z,5.37
2018-06-28T07:29:46.215Z,6.00
2018-06-28T07:32:14.650Z,5.17
2018-06-28T07:34:42.964Z,5.45
2018-06-28T07:37:11.301Z,5.17
2018-06-28T07:39:39.600Z,4.70
2018-06-28T07:42:07.962Z,5.25
2018-06-28T07:44:36.262Z,5.25
2018-06-28T07:47:04.612Z,5.72
2018-06-28T07:49:32.905Z,4.50
2018-06-28T07:52:01.243Z,5.08
2018-06-28T07:54:29.538Z,5.20
2018-06-28T07:56:57.839Z,4.37
2018-06-28T07:59:26.198Z,5.33
2018-06-28T08:01:54.518Z,4.90
2018-06-28T08:04:22.617Z,4.60
2018-06-28T08:06:50.918Z,4.37
2018-06-28T08:09:19.305Z,5.47
2018-06-28T08:11:47.633Z,4.72
2018-06-28T08:14:15.965Z,4.95
2018-06-28T08:16:44.265Z,4.40
2018-06-28T08:19:12.598Z,5.28
2018-06-28T08:21:40.909Z,4.58
2018-06-28T08:24:09.262Z,5.05
2018-06-28T08:26:37.554Z,4.42
2018-06-28T08:29:05.956Z,4.90
2018-06-28T08:31:34.512Z,5.60
2018-06-28T08:34:02.849Z,5.05
2018-06-28T08:36:31.205Z,4.95
2018-06-28T08:38:59.554Z,5.03
2018-06-28T08:41:27.865Z,5.08
2018-06-28T08:43:56.222Z,5.08
2018-06-28T08:46:24.733Z,5.20
2018-06-28T08:48:53.079Z,4.83
2018-06-28T08:51:21.397Z,5.40
2018-06-28T08:53:49.770Z,5.28
2018-06-28T08:56:18.066Z,6.50
2018-06-28T08:58:46.418Z,7.25
2018-06-28T09:01:14.785Z,6.65
2018-06-28T09:03:43.193Z,6.03
2018-06-28T09:06:11.249Z,5.20
2018-06-28T09:08:39.593Z,5.47
2018-06-28T09:11:07.898Z,5.20
2018-06-28T09:13:36.228Z,5.20
2018-06-28T09:16:04.569Z,5.22
2018-06-28T09:18:32.913Z,4.90
2018-06-28T09:21:01.233Z,5.10
2018-06-28T09:23:29.572Z,5.62
2018-06-28T09:25:57.905Z,5.17
2018-06-28T09:28:26.237Z,5.10
2018-06-28T09:30:54.556Z,5.85
2018-06-28T09:33:22.896Z,6.83
2018-06-28T09:35:51.344Z,6.25
2018-06-28T09:38:19.596Z,6.10
2018-06-28T09:40:47.660Z,5.70
2018-06-28T09:43:15.993Z,5.62
2018-06-28T09:45:44.333Z,6.58
2018-06-28T09:48:12.642Z,5.90
2018-06-28T09:50:40.977Z,6.05
2018-06-28T09:53:09.268Z,6.40
2018-06-28T09:55:37.610Z,5.70
2018-06-28T09:58:05.916Z,6.40
2018-06-28T10:00:39.355Z,5.78
2018-06-28T10:03:07.656Z,5.50
2018-06-28T10:05:36.037Z,6.00
2018-06-28T10:08:06.288Z,5.40
2018-06-28T10:10:34.621Z,8.35
2018-06-28T10:13:02.938Z,6.20
2018-06-28T10:15:31.300Z,5.50
2018-06-28T10:17:59.631Z,6.12
2018-06-28T10:20:27.990Z,6.60
2018-06-28T10:22:56.343Z,5.83
2018-06-28T10:25:24.683Z,6.33
2018-06-28T10:27:53.001Z,5.80
2018-06-28T10:30:21.374Z,5.97
2018-06-28T10:32:49.846Z,6.40
2018-06-28T10:35:18.085Z,6.22
2018-06-28T10:37:46.386Z,5.80
2018-06-28T10:40:14.716Z,5.97
2018-06-28T10:42:43.036Z,6.45
2018-06-28T10:45:11.418Z,5.87
2018-06-28T10:47:39.719Z,6.22
2018-06-28T10:50:08.053Z,6.28
2018-06-28T10:52:36.350Z,6.70
2018-06-28T10:55:04.755Z,8.50
2018-06-28T10:57:33.061Z,8.03
2018-06-28T11:00:01.390Z,8.13
2018-06-28T11:02:29.700Z,8.83
2018-06-28T11:04:58.072Z,8.40
2018-06-28T11:07:26.410Z,11.18
2018-06-28T11:09:54.741Z,10.20
2018-06-28T11:12:23.061Z,10.80
2018-06-28T11:14:52.260Z,11.80
2018-06-28T11:17:20.305Z,11.08
2018-06-28T11:19:48.640Z,12.93
2018-06-28T11:22:16.936Z,11.38
2018-06-28T11:24:45.269Z,11.18
2018-06-28T11:27:13.580Z,11.57
2018-06-28T11:29:41.964Z,10.48
2018-06-28T11:32:10.265Z,11.25
2018-06-28T11:34:38.563Z,10.30
2018-06-28T11:37:06.906Z,11.33
2018-06-28T11:39:35.210Z,12.43
2018-06-28T11:42:03.581Z,15.25
2018-06-28T11:44:31.893Z,13.08
2018-06-28T11:47:00.232Z,12.73
2018-06-28T11:49:28.544Z,13.48
2018-06-28T11:51:56.612Z,12.15
2018-06-28T11:54:24.925Z,13.32
2018-06-28T11:56:53.269Z,14.00
2018-06-28T11:59:21.584Z,14.10
2018-06-28T12:01:49.933Z,13.05
2018-06-28T12:04:18.280Z,15.75
2018-06-28T12:06:46.636Z,15.60
2018-06-28T12:09:14.956Z,12.88
2018-06-28T12:11:43.317Z,14.15
2018-06-28T12:14:11.655Z,14.13
2018-06-28T12:16:40.105Z,14.25
2018-06-28T12:19:08.137Z,13.20
2018-06-28T12:21:36.469Z,11.90
2018-06-28T12:24:05.006Z,11.00
2018-06-28T12:26:33.333Z,11.03
2018-06-28T12:29:01.357Z,10.90
2018-06-28T12:31:29.696Z,12.82
2018-06-28T12:33:57.994Z,12.53
2018-06-28T12:36:26.324Z,12.50
2018-06-28T12:38:54.644Z,12.05
2018-06-28T12:41:23.023Z,13.08
2018-06-28T12:43:51.364Z,13.15
2018-06-28T12:46:20.408Z,12.23
2018-06-28T12:48:48.666Z,14.13
2018-06-28T12:51:18.960Z,12.90
2018-06-28T12:53:46.996Z,13.80
2018-06-28T12:56:22.490Z,13.55
2018-06-28T12:58:51.999Z,11.78
2018-06-28T13:01:21.084Z,12.13
2018-06-28T13:03:49.344Z,14.18
2018-06-28T13:06:18.149Z,13.58
2018-06-28T13:08:46.501Z,13.58
2018-06-28T13:11:14.840Z,13.88
2018-06-28T13:13:43.145Z,11.43
2018-06-28T13:16:13.213Z,13.43
2018-06-28T13:18:41.654Z,11.25
2018-06-28T13:21:10.364Z,13.25
2018-06-28T13:23:38.721Z,11.70
2018-06-28T13:26:07.099Z,9.85
2018-06-28T13:28:35.406Z,9.55
2018-06-28T13:31:03.849Z,9.75
2018-06-28T13:33:32.147Z,8.88
2018-06-28T13:36:00.474Z,9.35
2018-06-28T13:38:28.837Z,8.93
2018-06-28T13:40:57.197Z,9.40
2018-06-28T13:43:25.522Z,10.28
2018-06-28T13:45:53.818Z,11.88
2018-06-28T13:48:22.344Z,11.30
2018-06-28T13:50:51.204Z,12.82
2018-06-28T13:53:19.561Z,10.78
2018-06-28T13:55:47.877Z,12.73
2018-06-28T13:58:16.204Z,13.18
2018-06-28T14:00:44.521Z,13.22
2018-06-28T14:03:12.903Z,12.50
2018-06-28T14:05:41.590Z,13.50
2018-06-28T14:08:10.104Z,11.88
2018-06-28T14:10:38.657Z,11.85
2018-06-28T14:13:07.121Z,12.68
2018-06-28T14:15:35.481Z,12.18
2018-06-28T14:18:03.869Z,11.53
2018-06-28T14:20:32.250Z,12.23
2018-06-28T14:23:00.540Z,13.40
2018-06-28T14:25:28.836Z,11.93
2018-06-28T14:27:57.232Z,14.00
2018-06-28T14:30:25.501Z,14.58
2018-06-28T14:32:53.832Z,14.25
2018-06-28T14:35:22.145Z,14.55
2018-06-28T14:37:50.536Z,15.10
2018-06-28T14:40:18.845Z,14.87
2018-06-28T14:42:47.198Z,11.55
2018-06-28T14:45:15.520Z,12.68
2018-06-28T14:47:43.848Z,13.55
2018-06-28T14:50:12.157Z,13.00
2018-06-28T14:52:40.501Z,12.75
2018-06-28T14:55:08.809Z,12.00
2018-06-28T14:57:36.881Z,14.65
2018-06-28T15:00:05.757Z,12.63
2018-06-28T15:02:34.094Z,13.00
2018-06-28T15:05:02.456Z,11.83
2018-06-28T15:07:30.785Z,12.58
2018-06-28T15:09:59.096Z,13.65
2018-06-28T15:12:27.421Z,13.03
2018-06-28T15:14:55.724Z,12.93
2018-06-28T15:17:24.077Z,13.18
2018-06-28T15:19:52.377Z,13.05
2018-06-28T15:22:20.678Z,11.85
2018-06-28T15:24:49.028Z,11.93
2018-06-28T15:27:17.349Z,12.30
2018-06-28T15:29:45.695Z,13.25
2018-06-28T15:32:14.018Z,13.40
2018-06-28T15:34:42.353Z,12.63
2018-06-28T15:37:10.668Z,12.03
2018-06-28T15:39:38.740Z,12.70
2018-06-28T15:42:07.101Z,12.78
2018-06-28T15:44:36.123Z,13.15
2018-06-28T15:47:05.077Z,13.13
2018-06-28T15:49:33.432Z,13.32
2018-06-28T15:52:02.966Z,14.60
2018-06-28T15:54:31.280Z,13.15
2018-06-28T15:56:59.593Z,15.78
2018-06-28T15:59:28.775Z,15.98
2018-06-28T16:01:57.149Z,16.17
2018-06-28T16:04:25.565Z,16.67
2018-06-28T16:06:53.870Z,15.30
2018-06-28T16:09:22.241Z,14.58
2018-06-28T16:11:50.532Z,15.35
2018-06-28T16:14:18.873Z,14.40
2018-06-28T16:16:47.197Z,15.58
2018-06-28T16:19:15.572Z,14.98
2018-06-28T16:21:43.876Z,17.52
2018-06-28T16:24:12.222Z,16.70
2018-06-28T16:26:40.534Z,15.68
2018-06-28T16:29:08.904Z,16.05
2018-06-28T16:31:37.234Z,16.00
2018-06-28T16:34:07.452Z,15.43
2018-06-28T16:36:35.596Z,14.75
2018-06-28T16:39:05.940Z,13.65
2018-06-28T16:41:34.253Z,14.23
2018-06-28T16:44:02.601Z,12.85
2018-06-28T16:46:31.223Z,15.13
2018-06-28T16:48:59.502Z,13.05
2018-06-28T16:51:27.817Z,13.50
2018-06-28T16:53:56.149Z,12.93
2018-06-28T16:56:24.465Z,13.10
2018-06-28T16:58:52.822Z,12.03
2018-06-28T17:01:21.124Z,13.60
2018-06-28T17:03:49.472Z,11.90
2018-06-28T17:06:17.781Z,13.30
2018-06-28T17:08:46.159Z,13.72
2018-06-28T17:11:14.468Z,12.20
2018-06-28T17:13:42.813Z,13.28
2018-06-28T17:16:11.130Z,14.43
2018-06-28T17:18:39.482Z,13.43
2018-06-28T17:21:07.825Z,13.90
2018-06-28T17:23:36.111Z,14.65
2018-06-28T17:26:04.476Z,15.35
2018-06-28T17:28:39.328Z,13.78
2018-06-28T17:31:07.697Z,14.20
2018-06-28T17:33:36.038Z,14.75
2018-06-28T17:36:04.360Z,13.13
2018-06-28T17:38:32.657Z,15.08
2018-06-28T17:41:01.021Z,14.78
2018-06-28T17:43:29.353Z,13.90
2018-06-28T17:45:57.420Z,14.25
2018-06-28T17:48:25.712Z,10.88
2018-06-28T17:50:53.778Z,10.20
2018-06-28T17:53:21.820Z,10.78
2018-06-28T17:55:50.157Z,9.65
2018-06-28T17:58:18.465Z,10.80
2018-06-28T18:00:46.805Z,10.15
2018-06-28T18:03:15.109Z,10.72
2018-06-28T18:05:43.641Z,10.60
2018-06-28T18:08:12.296Z,10.72
2018-06-28T18:10:40.633Z,11.10
2018-06-28T18:13:08.934Z,11.80
2018-06-28T18:15:37.337Z,12.23
2018-06-28T18:18:05.652Z,12.05
2018-06-28T18:20:33.993Z,11.88
2018-06-28T18:23:02.303Z,13.25
2018-06-28T18:25:30.655Z,12.93
2018-06-28T18:27:58.969Z,14.23
2018-06-28T18:30:27.036Z,13.00
2018-06-28T18:32:55.352Z,12.45
2018-06-28T18:35:23.685Z,12.98
2018-06-28T18:37:51.985Z,12.75
2018-06-28T18:40:20.325Z,12.18
2018-06-28T18:42:48.688Z,11.40
2018-06-28T18:45:17.061Z,12.63
2018-06-28T18:47:45.357Z,11.60
2018-06-28T18:50:13.689Z,12.03
2018-06-28T18:52:41.996Z,10.45
2018-06-28T18:55:10.353Z,11.63
2018-06-28T18:57:38.664Z,11.30
2018-06-28T19:00:07.001Z,10.55
2018-06-28T19:02:35.297Z,11.65
2018-06-28T19:05:03.697Z,13.43
2018-06-28T19:07:32.009Z,12.20
2018-06-28T19:10:05.688Z,12.50
2018-06-28T19:12:34.001Z,12.35
2018-06-28T19:15:07.778Z,12.73
2018-06-28T19:17:36.105Z,12.73
2018-06-28T19:20:05.306Z,12.23
2018-06-28T19:22:39.042Z,12.55
2018-06-28T19:25:07.389Z,13.00
2018-06-28T19:27:35.697Z,12.75
2018-06-28T19:30:09.410Z,12.23
2018-06-28T19:32:37.716Z,12.73
2018-06-28T19:35:06.109Z,14.38
2018-06-28T19:37:39.781Z,13.62
2018-06-28T19:40:14.029Z,23.42
2018-06-28T19:42:47.653Z,15.15
2018-06-28T19:45:16.031Z,13.15
2018-06-28T19:47:44.333Z,13.00
2018-06-28T19:50:18.007Z,12.95
2018-06-28T19:52:51.597Z,12.20
2018-06-28T19:55:19.962Z,12.60
2018-06-28T19:57:48.265Z,12.73
2018-06-28T20:00:21.648Z,13.22
2018-06-28T20:02:55.417Z,13.25
2018-06-28T20:05:23.813Z,13.08
2018-06-28T20:07:52.129Z,12.35
2018-06-28T20:10:20.280Z,11.93
2018-06-28T20:12:53.934Z,12.80
2018-06-28T20:15:38.885Z,11.65
2018-06-28T20:18:12.605Z,12.10
2018-06-28T20:20:40.962Z,11.03
2018-06-28T20:23:08.996Z,10.50
2018-06-28T20:25:37.340Z,11.73
2018-06-28T20:28:10.873Z,10.75
2018-06-28T20:30:44.485Z,10.55
2018-06-28T20:33:18.237Z,10.40
2018-06-28T20:35:46.578Z,10.25
2018-06-28T20:38:14.868Z,11.85
2018-06-28T20:40:42.905Z,11.80
2018-06-28T20:43:11.240Z,11.78
2018-06-28T20:45:39.549Z,10.28
2018-06-28T20:48:08.385Z,11.38
2018-06-28T20:50:36.606Z,10.55
2018-06-28T20:53:04.945Z,11.00
2018-06-28T20:55:33.309Z,10.95
2018-06-28T20:58:01.637Z,11.83
2018-06-28T21:00:29.974Z,10.90
2018-06-28T21:02:58.328Z,11.00
2018-06-28T21:05:26.690Z,12.85
2018-06-28T21:07:55.099Z,11.50
2018-06-28T21:10:23.396Z,11.73
2018-06-28T21:12:51.828Z,10.80
2018-06-28T21:15:20.464Z,9.60
2018-06-28T21:17:48.788Z,8.80
2018-06-28T21:20:17.376Z,9.50
2018-06-28T21:22:45.704Z,9.00
2018-06-28T21:25:13.864Z,8.80
2018-06-28T21:27:42.200Z,9.25
2018-06-28T21:30:10.529Z,8.98
2018-06-28T21:32:38.869Z,10.15
2018-06-28T21:35:07.469Z,10.40
2018-06-28T21:37:35.849Z,11.38
2018-06-28T21:40:04.587Z,12.78
2018-06-28T21:42:32.957Z,12.50
2018-06-28T21:45:01.292Z,11.63
2018-06-28T21:47:29.624Z,11.88
2018-06-28T21:49:57.923Z,11.60
2018-06-28T21:52:26.264Z,11.20
2018-06-28T21:54:54.577Z,12.20
2018-06-28T21:57:22.940Z,14.00
2018-06-28T21:59:51.250Z,13.50
2018-06-28T22:02:19.590Z,14.68
2018-06-28T22:04:47.897Z,14.47
2018-06-28T22:07:16.241Z,13.20
2018-06-28T22:09:44.559Z,14.25
2018-06-28T22:12:12.898Z,13.38
2018-06-28T22:14:41.205Z,13.65
2018-06-28T22:17:09.572Z,14.80
2018-06-28T22:19:37.906Z,14.70
2018-06-28T22:22:06.302Z,14.10
2018-06-28T22:24:34.608Z,16.70
2018-06-28T22:27:02.911Z,15.95
2018-06-28T22:29:31.252Z,14.65
2018-06-28T22:31:59.557Z,15.00
2018-06-28T22:34:27.892Z,14.50
2018-06-28T22:36:56.212Z,14.47
2018-06-28T22:39:24.540Z,14.18
2018-06-28T22:41:52.848Z,12.85
2018-06-28T22:44:21.182Z,13.15
2018-06-28T22:46:49.517Z,13.10
2018-06-28T22:49:17.880Z,12.33
2018-06-28T22:51:46.196Z,11.50
2018-06-28T22:54:14.547Z,11.12
2018-06-28T22:56:42.873Z,10.15
2018-06-28T22:59:11.192Z,9.95
2018-06-28T23:01:39.488Z,9.28
2018-06-28T23:04:07.816Z,8.60
2018-06-28T23:06:36.109Z,9.73
2018-06-28T23:09:07.807Z,9.48
2018-06-28T23:11:35.847Z,8.50
2018-06-28T23:14:04.265Z,8.40
2018-06-28T23:16:32.578Z,9.23
2018-06-28T23:19:00.913Z,9.18
2018-06-28T23:21:29.212Z,8.40
2018-06-28T23:23:57.544Z,9.53
2018-06-28T23:26:25.833Z,8.38
2018-06-28T23:28:54.205Z,8.50
2018-06-28T23:31:22.498Z,8.53
2018-06-28T23:33:50.972Z,8.65
2018-06-28T23:36:19.151Z,9.73
2018-06-28T23:38:47.481Z,9.50
2018-06-28T23:41:15.777Z,9.35
2018-06-28T23:43:44.511Z,9.58
2018-06-28T23:46:12.825Z,9.85
2018-06-28T23:48:41.152Z,9.55
2018-06-28T23:51:09.452Z,10.48
2018-06-28T23:53:37.790Z,8.70
2018-06-28T23:56:06.114Z,9.03
2018-06-28T23:58:34.457Z,10.65
